createdAt,value
2019-04-23T00:03:47.246Z,96065.34
2019-04-23T00:06:18.898Z,96062.98
2019-04-23T00:08:50.115Z,96054.86
2019-04-23T00:11:13.719Z,96044.38
2019-04-23T00:13:44.167Z,96045.96
2019-04-23T00:18:42.203Z,96045.44
2019-04-23T00:21:26.631Z,96035.47
2019-04-23T00:24:01.780Z,96036.25
2019-04-23T00:33:55.044Z,96028.92
2019-04-23T00:36:22.946Z,96031.01
2019-04-23T00:38:47.327Z,96027.86
2019-04-23T00:41:30.872Z,96025.77
2019-04-23T00:43:43.304Z,96016.59
2019-04-23T00:46:28.260Z,96014.50
2019-04-23T00:48:45.511Z,96019.20
2019-04-23T00:51:09.945Z,96004.78
2019-04-23T00:53:32.948Z,96000.85
2019-04-23T00:56:29.992Z,96000.85
2019-04-23T00:58:38.205Z,95999.55
2019-04-23T01:01:00.447Z,95992.73
2019-04-23T01:03:25.387Z,95993.52
2019-04-23T01:05:58.868Z,95994.83
2019-04-23T01:08:29.748Z,95994.30
2019-04-23T01:13:40.081Z,95992.20
2019-04-23T01:15:59.573Z,95994.83
2019-04-23T01:18:40.955Z,95989.30
2019-04-23T01:20:53.482Z,95995.08
2019-04-23T01:23:16.122Z,95989.83
2019-04-23T01:25:56.046Z,95988.52
2019-04-23T01:28:41.857Z,95985.66
2019-04-23T01:31:08.908Z,95988.77
2019-04-23T01:33:40.646Z,95987.74
2019-04-23T01:36:16.220Z,95980.12
2019-04-23T01:38:40.473Z,95973.32
2019-04-23T01:41:00.427Z,95875.84
2019-04-23T01:43:30.135Z,95964.67
2019-04-23T01:46:04.575Z,95966.23
2019-04-23T01:48:30.062Z,95961.27
2019-04-23T01:53:31.800Z,95960.46
2019-04-23T02:00:54.518Z,95952.34
2019-04-23T02:03:21.168Z,95953.13
2019-04-23T02:05:48.383Z,95952.34
2019-04-23T02:08:15.610Z,95951.03
2019-04-23T02:10:51.336Z,95953.41
2019-04-23T02:13:16.829Z,95948.94
2019-04-23T02:15:41.135Z,95946.04
2019-04-23T02:20:44.384Z,95944.47
2019-04-23T02:23:18.618Z,95937.14
2019-04-23T02:26:01.291Z,95942.88
2019-04-23T02:28:19.049Z,95943.41
2019-04-23T02:33:29.444Z,95933.45
2019-04-23T02:43:13.352Z,95926.65
2019-04-23T02:45:48.808Z,95928.99
2019-04-23T02:48:19.068Z,95911.17
2019-04-23T02:53:20.085Z,95913.02
2019-04-23T02:55:42.850Z,95912.48
2019-04-23T02:58:02.076Z,95906.98
2019-04-23T03:03:19.795Z,95895.97
2019-04-23T03:05:24.907Z,95891.25
2019-04-23T03:08:06.236Z,95886.01
2019-04-23T03:10:32.467Z,95892.03
2019-04-23T03:13:01.686Z,95892.56
2019-04-23T03:15:50.072Z,95893.34
2019-04-23T03:18:31.911Z,95898.06
2019-04-23T03:23:32.029Z,95894.66
2019-04-23T03:26:11.006Z,95896.50
2019-04-23T03:28:38.327Z,95887.56
2019-04-23T03:32:31.824Z,95885.23
2019-04-23T03:38:39.437Z,95874.20
2019-04-23T03:41:15.007Z,95874.98
2019-04-23T03:43:34.031Z,95874.98
2019-04-23T03:48:26.633Z,95877.36
2019-04-23T03:53:26.432Z,95872.36
2019-04-23T03:58:18.887Z,95883.63
2019-04-23T04:00:47.385Z,95882.86
2019-04-23T04:03:53.017Z,95882.33
2019-04-23T04:05:45.456Z,95877.36
2019-04-23T04:10:44.593Z,95882.86
2019-04-23T04:13:08.735Z,95878.67
2019-04-23T04:15:48.887Z,95883.39
2019-04-23T04:18:25.916Z,95885.48
2019-04-23T04:23:19.088Z,95875.52
2019-04-23T04:25:33.608Z,95878.67
2019-04-23T04:35:22.128Z,95877.89
2019-04-23T04:38:05.768Z,95886.54
2019-04-23T04:40:33.105Z,95885.23
2019-04-23T04:43:09.113Z,95879.98
2019-04-23T04:47:44.861Z,95880.77
2019-04-23T04:50:16.899Z,95876.05
2019-04-23T05:00:20.826Z,95880.23
2019-04-23T05:03:04.745Z,95873.43
2019-04-23T05:05:48.611Z,95884.16
2019-04-23T05:07:42.139Z,95882.86
2019-04-23T05:10:21.843Z,95880.52
2019-04-23T05:17:42.315Z,95879.45
2019-04-23T05:20:05.571Z,95876.05
2019-04-23T05:22:38.975Z,95878.14
2019-04-23T05:24:51.286Z,95880.77
2019-04-23T05:27:34.560Z,95880.23
2019-04-23T05:30:02.970Z,95882.61
2019-04-23T05:32:28.815Z,95876.58
2019-04-23T05:34:57.651Z,95885.48
2019-04-23T05:37:29.491Z,95876.05
2019-04-23T05:40:15.967Z,95879.45
2019-04-23T05:42:19.903Z,95891.25
2019-04-23T05:44:51.017Z,95893.87
2019-04-23T05:47:20.350Z,95884.70
2019-04-23T05:49:47.664Z,95886.79
2019-04-23T05:52:17.663Z,95892.56
2019-04-23T05:54:52.770Z,95891.25
2019-04-23T05:57:10.297Z,95888.62
2019-04-23T05:59:42.204Z,95898.59
2019-04-23T06:02:30.985Z,95892.56
2019-04-23T06:04:36.953Z,95892.56
2019-04-23T06:12:10.075Z,95890.47
2019-04-23T06:17:03.619Z,95889.69
2019-04-23T06:19:27.631Z,95888.62
2019-04-23T06:22:27.315Z,95887.56
2019-04-23T06:27:01.698Z,95889.41
2019-04-23T06:31:55.247Z,95889.94
2019-04-23T06:39:26.433Z,95897.81
2019-04-23T06:44:25.410Z,95891.25
2019-04-23T06:49:20.140Z,95883.14
2019-04-23T06:51:52.138Z,95889.94
2019-04-23T06:54:19.059Z,95887.07
2019-04-23T06:59:22.256Z,95891.25
2019-04-23T07:01:56.280Z,95885.48
2019-04-23T07:04:18.160Z,95882.61
2019-04-23T07:06:48.606Z,95888.88
2019-04-23T07:11:40.211Z,95884.16
2019-04-23T07:14:02.658Z,95887.56
2019-04-23T07:19:33.842Z,95883.39
2019-04-23T07:22:06.655Z,95884.16
2019-04-23T07:24:28.712Z,95872.90
2019-04-23T07:26:55.804Z,95875.52
2019-04-23T07:29:48.578Z,95873.67
2019-04-23T07:31:59.045Z,95872.90
2019-04-23T07:34:26.456Z,95875.77
2019-04-23T07:36:58.881Z,95871.30
2019-04-23T07:39:27.269Z,95872.36
2019-04-23T07:42:20.968Z,95871.05
2019-04-23T07:47:23.265Z,95878.39
2019-04-23T07:49:50.640Z,95878.11
2019-04-23T07:52:15.058Z,95871.30
2019-04-23T07:54:45.695Z,95873.92
2019-04-23T07:57:18.723Z,95870.23
2019-04-23T07:59:48.608Z,95874.17
2019-04-23T08:02:13.945Z,95881.51
2019-04-23T08:04:52.613Z,95876.23
2019-04-23T08:07:12.090Z,95884.80
2019-04-23T08:09:42.784Z,95876.97
2019-04-23T08:12:13.898Z,95883.00
2019-04-23T08:14:40.849Z,95878.81
2019-04-23T08:16:58.322Z,95882.75
2019-04-23T08:19:41.030Z,95885.37
2019-04-23T08:22:09.252Z,95880.66
2019-04-23T08:24:47.038Z,95889.30
2019-04-23T08:27:18.105Z,95886.16
2019-04-23T08:29:44.431Z,95881.69
2019-04-23T08:34:58.568Z,95878.53
2019-04-23T08:42:36.477Z,95886.15
2019-04-23T08:45:01.267Z,95884.30
2019-04-23T08:47:21.733Z,95881.69
2019-04-23T08:49:59.372Z,95877.75
2019-04-23T08:52:17.210Z,95885.09
2019-04-23T08:57:17.127Z,95876.16
2019-04-23T08:59:45.188Z,95871.97
2019-04-23T09:02:29.002Z,95874.31
2019-04-23T09:14:32.269Z,95866.94
2019-04-23T09:17:09.737Z,95869.31
2019-04-23T09:19:32.362Z,95871.66
2019-04-23T09:22:09.508Z,95865.62
2019-04-23T09:24:25.890Z,95862.47
2019-04-23T09:26:58.753Z,95863.78
2019-04-23T09:29:32.182Z,95861.69
2019-04-23T09:32:20.827Z,95863.25
2019-04-23T09:34:46.495Z,95862.72
2019-04-23T09:37:19.477Z,95869.52
2019-04-23T09:39:44.504Z,95870.84
2019-04-23T09:42:27.697Z,95869.52
2019-04-23T09:45:05.362Z,95865.30
2019-04-23T09:47:55.326Z,95866.38
2019-04-23T09:50:15.654Z,95853.50
2019-04-23T09:53:01.449Z,95856.91
2019-04-23T09:55:22.400Z,95856.04
2019-04-23T09:57:44.683Z,95850.80
2019-04-23T10:00:18.809Z,95854.48
2019-04-23T10:02:29.235Z,95854.24
2019-04-23T10:04:57.454Z,95849.53
2019-04-23T10:07:26.431Z,95844.32
2019-04-23T10:09:38.330Z,95847.77
2019-04-23T10:12:07.196Z,95847.23
2019-04-23T10:14:34.531Z,95844.36
2019-04-23T10:17:02.170Z,95841.20
2019-04-23T10:19:30.672Z,95841.48
2019-04-23T10:21:57.736Z,95840.17
2019-04-23T10:24:25.304Z,95836.00
2019-04-23T10:26:52.399Z,95829.97
2019-04-23T10:29:20.957Z,95830.22
2019-04-23T10:31:49.274Z,95829.97
2019-04-23T10:34:17.074Z,95833.38
2019-04-23T10:36:44.143Z,95829.97
2019-04-23T10:42:14.209Z,95832.84
2019-04-23T10:48:21.697Z,95829.72
2019-04-23T10:56:30.567Z,95824.48
2019-04-23T10:58:45.358Z,95819.23
2019-04-23T11:01:21.284Z,95809.80
2019-04-23T11:06:28.795Z,95807.43
2019-04-23T11:08:51.290Z,95813.98
2019-04-23T11:11:23.909Z,95803.25
2019-04-23T11:23:40.945Z,95812.43
2019-04-23T11:26:19.871Z,95819.23
2019-04-23T11:28:38.263Z,95815.30
2019-04-23T11:31:13.825Z,95816.36
2019-04-23T11:33:46.130Z,95815.30
2019-04-23T11:36:41.484Z,95811.12
2019-04-23T11:41:10.916Z,95821.61
2019-04-23T11:43:39.549Z,95815.58
2019-04-23T11:48:46.389Z,95816.89
2019-04-23T11:53:34.396Z,95823.70
2019-04-23T11:58:29.061Z,95821.36
2019-04-23T12:01:23.368Z,95832.10
2019-04-23T12:03:57.097Z,95823.45
2019-04-23T12:06:45.692Z,95827.39
2019-04-23T12:11:52.824Z,95826.33
2019-04-23T12:14:37.152Z,95829.23
2019-04-23T12:17:18.631Z,95838.41
2019-04-23T12:22:01.447Z,95827.39
2019-04-23T12:24:52.099Z,95838.41
2019-04-23T12:29:29.240Z,95834.72
2019-04-23T12:32:28.110Z,95835.78
2019-04-23T12:34:47.585Z,95833.95
2019-04-23T12:37:04.112Z,95830.01
2019-04-23T12:39:42.210Z,95825.30
2019-04-23T12:42:25.072Z,95827.39
2019-04-23T12:44:39.275Z,95831.25
2019-04-23T12:47:05.405Z,95823.41
2019-04-23T12:52:11.604Z,95821.37
2019-04-23T12:54:51.597Z,95818.46
2019-04-23T12:59:36.684Z,95817.16
2019-04-23T13:02:05.587Z,95809.56
2019-04-23T13:04:32.242Z,95812.19
2019-04-23T13:06:57.849Z,95814.81
2019-04-23T13:12:25.639Z,95807.48
2019-04-23T13:14:29.606Z,95812.48
2019-04-23T13:17:02.125Z,95806.16
2019-04-23T13:19:37.324Z,95804.08
2019-04-23T13:21:57.835Z,95804.86
2019-04-23T13:24:25.980Z,95821.12
2019-04-23T13:26:58.934Z,95805.92
2019-04-23T13:29:38.106Z,95797.52
2019-04-23T13:31:51.822Z,95795.14
2019-04-23T13:34:23.100Z,95792.52
2019-04-23T13:36:51.373Z,95796.45
2019-04-23T13:39:24.435Z,95795.43
2019-04-23T13:41:47.729Z,95797.27
2019-04-23T13:44:16.395Z,95791.78
2019-04-23T13:46:39.731Z,95788.38
2019-04-23T13:49:16.383Z,95794.41
2019-04-23T13:51:40.504Z,95792.77
2019-04-23T13:59:21.738Z,95800.84
2019-04-23T14:01:59.746Z,95800.30
2019-04-23T14:04:21.305Z,95793.50
2019-04-23T14:06:44.479Z,95798.74
2019-04-23T14:09:20.066Z,95800.30
2019-04-23T14:11:51.487Z,95799.53
2019-04-23T14:14:32.113Z,95798.21
2019-04-23T14:19:14.277Z,95798.45
2019-04-23T14:21:37.000Z,95796.61
2019-04-23T14:24:23.550Z,95803.42
2019-04-23T14:26:34.204Z,95806.04
2019-04-23T14:29:10.274Z,95797.92
2019-04-23T14:31:36.914Z,95802.39
2019-04-23T14:34:05.163Z,95803.70
2019-04-23T14:36:37.042Z,95806.33
2019-04-23T14:39:21.007Z,95807.89
2019-04-23T14:41:26.506Z,95828.09
2019-04-23T14:44:01.818Z,95810.72
2019-04-23T14:49:01.308Z,95812.84
2019-04-23T14:51:32.294Z,95811.53
2019-04-23T14:53:48.559Z,95811.25
2019-04-23T14:56:22.545Z,95813.74
2019-04-23T15:01:27.307Z,95822.97
2019-04-23T15:03:47.058Z,95814.61
2019-04-23T15:08:57.420Z,95807.80
2019-04-23T15:13:45.687Z,95803.87
2019-04-23T15:18:52.612Z,95797.84
2019-04-23T15:21:43.008Z,95793.91
2019-04-23T15:27:01.745Z,95793.13
2019-04-23T15:28:17.489Z,95794.97
2019-04-23T15:31:20.689Z,95796.04
2019-04-23T15:33:45.030Z,95804.16
2019-04-23T15:36:23.889Z,95803.38
2019-04-23T15:41:10.692Z,95809.40
2019-04-23T15:43:33.154Z,95806.53
2019-04-23T15:46:02.668Z,95807.06
2019-04-23T15:48:31.091Z,95801.28
2019-04-23T15:51:04.919Z,95803.13
2019-04-23T15:53:19.570Z,95807.06
2019-04-23T15:56:02.243Z,95806.28
2019-04-23T15:58:26.326Z,95808.13
2019-04-23T16:00:59.334Z,95811.52
2019-04-23T16:02:51.859Z,95804.97
2019-04-23T16:05:21.137Z,95814.92
2019-04-23T16:08:01.710Z,95818.86
2019-04-23T16:10:51.855Z,95821.45
2019-04-23T16:13:32.427Z,95812.27
2019-04-23T16:15:43.382Z,95870.23
2019-04-23T16:18:26.435Z,95817.55
2019-04-23T16:20:50.303Z,95815.99
2019-04-23T16:23:17.813Z,95821.77
2019-04-23T16:25:40.464Z,95821.77
2019-04-23T16:28:12.916Z,95826.23
2019-04-23T16:30:32.086Z,95827.80
2019-04-23T16:35:43.314Z,95828.32
2019-04-23T16:38:26.755Z,95833.56
2019-04-23T16:40:37.035Z,95828.08
2019-04-23T16:43:10.137Z,95828.85
2019-04-23T16:45:31.334Z,95839.63
2019-04-23T16:48:15.807Z,95835.94
2019-04-23T16:50:41.765Z,95826.77
2019-04-23T16:53:11.553Z,95827.30
2019-04-23T16:55:29.470Z,95829.91
2019-04-23T16:58:03.586Z,95838.56
2019-04-23T17:03:06.998Z,95833.85
2019-04-23T17:05:26.087Z,95834.38
2019-04-23T17:08:24.841Z,95835.69
2019-04-23T17:10:29.557Z,95832.53
2019-04-23T17:12:56.012Z,95835.69
2019-04-23T17:15:16.647Z,95843.56
2019-04-23T17:17:48.863Z,95847.99
2019-04-23T17:20:21.264Z,95838.56
2019-04-23T17:22:51.096Z,95838.56
2019-04-23T17:25:28.302Z,95840.41
2019-04-23T17:28:08.994Z,95844.34
2019-04-23T17:30:12.051Z,95838.81
2019-04-23T17:32:39.163Z,95846.44
2019-04-23T17:37:40.603Z,95851.92
2019-04-23T17:42:43.868Z,95836.73
2019-04-23T17:45:31.280Z,95841.19
2019-04-23T17:47:59.296Z,95844.34
2019-04-23T17:50:28.730Z,95847.74
2019-04-23T17:52:58.348Z,95846.44
2019-04-23T17:55:21.831Z,95848.28
2019-04-23T17:57:50.234Z,95850.66
2019-04-23T18:00:35.986Z,95855.08
2019-04-23T18:05:30.800Z,95855.89
2019-04-23T18:07:50.576Z,95851.14
2019-04-23T18:10:24.343Z,95850.37
2019-04-23T18:12:53.706Z,95850.89
2019-04-23T18:15:14.879Z,95849.34
2019-04-23T18:17:48.557Z,95859.83
2019-04-23T18:20:26.256Z,95856.42
2019-04-23T18:23:06.550Z,95858.52
2019-04-23T18:25:26.435Z,95861.92
2019-04-23T18:30:40.777Z,95869.25
2019-04-23T18:33:49.722Z,95878.18
2019-04-23T18:35:37.877Z,95876.87
2019-04-23T18:38:23.330Z,95883.67
2019-04-23T18:41:01.347Z,95881.05
2019-04-23T18:43:19.538Z,95877.15
2019-04-23T18:51:00.151Z,95876.34
2019-04-23T18:53:37.053Z,95884.98
2019-04-23T18:56:05.641Z,95891.29
2019-04-23T18:58:22.453Z,95892.56
2019-04-23T19:00:56.859Z,95895.60
2019-04-23T19:03:48.142Z,95891.53
2019-04-23T19:06:31.668Z,95897.98
2019-04-23T19:09:04.317Z,95909.52
2019-04-23T19:11:51.849Z,95907.09
2019-04-23T19:14:08.053Z,95910.64
2019-04-23T19:16:50.551Z,95916.77
2019-04-23T19:19:09.664Z,95918.85
2019-04-23T19:22:00.941Z,95921.44
2019-04-23T19:26:55.227Z,95923.50
2019-04-23T19:29:00.385Z,95925.88
2019-04-23T19:31:40.143Z,95927.72
2019-04-23T19:36:39.669Z,95925.09
2019-04-23T19:39:11.939Z,95926.65
2019-04-23T19:41:39.238Z,95928.49
2019-04-23T19:44:02.515Z,95928.49
2019-04-23T19:46:41.921Z,95929.80
2019-04-23T19:49:03.562Z,95932.67
2019-04-23T19:51:33.786Z,95930.84
2019-04-23T19:54:10.950Z,95927.96
2019-04-23T19:56:47.278Z,95933.98
2019-04-23T19:58:54.327Z,95932.67
2019-04-23T20:03:57.953Z,95930.84
2019-04-23T20:11:20.172Z,95930.30
2019-04-23T20:21:03.241Z,95933.95
2019-04-23T20:23:55.916Z,95945.76
2019-04-23T20:26:13.570Z,95951.00
2019-04-23T20:34:10.608Z,95939.45
2019-04-23T20:36:32.541Z,95942.84
2019-04-23T20:41:21.099Z,95948.09
2019-04-23T20:43:58.999Z,95953.87
2019-04-23T20:46:14.913Z,95943.63
2019-04-23T20:48:49.002Z,95947.03
2019-04-23T20:51:14.227Z,95942.84
2019-04-23T20:53:48.616Z,95941.54
2019-04-23T20:58:48.050Z,95937.86
2019-04-23T21:01:18.867Z,95931.05
2019-04-23T21:03:46.958Z,95942.32
2019-04-23T21:06:10.257Z,95945.72
2019-04-23T21:09:03.792Z,95945.72
2019-04-23T21:10:58.334Z,95948.59
2019-04-23T21:13:47.379Z,95949.13
2019-04-23T21:15:58.306Z,95953.06
2019-04-23T21:26:01.927Z,95956.99
2019-04-23T21:28:49.146Z,95958.30
2019-04-23T21:33:49.823Z,95964.08
2019-04-23T21:39:06.209Z,95960.67
2019-04-23T21:41:52.566Z,95962.23
2019-04-23T21:46:38.264Z,95961.46
2019-04-23T21:51:45.530Z,95967.48
2019-04-23T21:54:04.896Z,95870.11
2019-04-23T21:56:33.248Z,95964.08
2019-04-23T21:59:02.584Z,95962.77
2019-04-23T22:01:34.935Z,95971.95
2019-04-23T22:04:08.607Z,95966.95
2019-04-23T22:06:31.506Z,95968.80
2019-04-23T22:09:00.880Z,95969.86
2019-04-23T22:11:44.235Z,95968.55
2019-04-23T22:13:58.170Z,95966.70
2019-04-23T22:19:05.413Z,95968.02
2019-04-23T22:21:20.854Z,95967.77
2019-04-23T22:23:59.564Z,95970.64
2019-04-23T22:26:23.971Z,95978.22
2019-04-23T22:28:50.080Z,95975.35
2019-04-23T22:31:29.207Z,95975.35
2019-04-23T22:33:46.946Z,95977.97
2019-04-23T22:36:09.322Z,95980.59
2019-04-23T22:38:37.502Z,95980.06
2019-04-23T22:41:03.153Z,95981.91
2019-04-23T22:43:44.529Z,95983.75
2019-04-23T22:48:37.048Z,95980.34
2019-04-23T22:53:27.633Z,95990.55
2019-04-23T22:58:23.446Z,95987.68
2019-04-23T23:01:10.819Z,95984.00
2019-04-23T23:08:30.735Z,95987.93
2019-04-23T23:10:56.650Z,95984.00
2019-04-23T23:13:46.554Z,95979.81
2019-04-23T23:20:57.447Z,95966.70
2019-04-23T23:23:17.997Z,95971.17
2019-04-23T23:25:52.009Z,95974.04
2019-04-23T23:30:58.262Z,95964.86
2019-04-23T23:35:52.206Z,95966.70
2019-04-23T23:38:21.808Z,95970.89
2019-04-23T23:41:03.681Z,95972.73
2019-04-23T23:43:22.640Z,95972.73
2019-04-23T23:45:44.889Z,95966.42
2019-04-23T23:48:06.132Z,95975.59
2019-04-23T23:53:27.117Z,95974.04
2019-04-23T23:55:38.756Z,95981.38
2019-04-23T23:58:07.066Z,95977.44
